sensor_id;sensor_type;location;lat;lon;timestamp;P1;P2;P0
50041;PMS7003;44598;51.606;5.912;2024-01-06T00:00:42;18.25;18.32;8.73
50041;PMS7003;44598;51.606;5.912;2024-01-06T00:40:40;25.69;23.01;11.89
50041;PMS7003;44598;51.606;5.912;2024-01-06T01:07:20;19.81;19.63;8.73
50041;PMS7003;44598;51.606;5.912;2024-01-06T01:20:39;16.93;17.89;7.42
50041;PMS7003;44598;51.606;5.912;2024-01-06T01:33:59;16.09;17.23;7.31
50041;PMS7003;44598;51.606;5.912;2024-01-06T01:47:19;14.41;16.25;6.55
50041;PMS7003;44598;51.606;5.912;2024-01-06T02:27:18;13.57;14.94;5.68
50041;PMS7003;44598;51.606;5.912;2024-01-06T02:53:57;10.57;12.76;4.91
50041;PMS7003;44598;51.606;5.912;2024-01-06T03:07:16;12.01;13.96;5.13
50041;PMS7003;44598;51.606;5.912;2024-01-06T03:20:36;9.49;11.78;4.7
50041;PMS7003;44598;51.606;5.912;2024-01-06T03:33:56;9.61;11.89;4.7
50041;PMS7003;44598;51.606;5.912;2024-01-06T04:13:55;13.09;15.05;5.46
50041;PMS7003;44598;51.606;5.912;2024-01-06T04:27:14;15.13;16.8;6.11
50041;PMS7003;44598;51.606;5.912;2024-01-06T04:40:34;15.85;17.34;6.0
50041;PMS7003;44598;51.606;5.912;2024-01-06T04:53:53;15.01;16.8;6.0
50041;PMS7003;44598;51.606;5.912;2024-01-06T05:20:33;14.65;16.36;6.44
50041;PMS7003;44598;51.606;5.912;2024-01-06T05:33:53;13.93;15.71;6.44
50041;PMS7003;44598;51.606;5.912;2024-01-06T06:00:32;14.29;16.25;6.0
50041;PMS7003;44598;51.606;5.912;2024-01-06T06:27:11;14.89;16.58;5.9
50041;PMS7003;44598;51.606;5.912;2024-01-06T06:40:31;15.49;17.01;6.33
50041;PMS7003;44598;51.606;5.912;2024-01-06T06:53:50;10.21;12.33;4.37
50041;PMS7003;44598;51.606;5.912;2024-01-06T07:07:10;10.81;12.76;4.37
50041;PMS7003;44598;51.606;5.912;2024-01-06T08:00:29;15.49;17.34;6.99
50041;PMS7003;44598;51.606;5.912;2024-01-06T08:13:48;18.37;18.98;7.97
50041;PMS7003;44598;51.606;5.912;2024-01-06T08:27:08;17.77;18.76;7.2
50041;PMS7003;44598;51.606;5.912;2024-01-06T08:53:47;17.77;18.76;7.42
50041;PMS7003;44598;51.606;5.912;2024-01-06T09:33:46;17.17;18.54;7.53
50041;PMS7003;44598;51.606;5.912;2024-01-06T09:47:06;18.13;18.98;7.42
50041;PMS7003;44598;51.606;5.912;2024-01-06T10:00:25;16.93;17.99;7.31
50041;PMS7003;44598;51.606;5.912;2024-01-06T10:13:45;17.05;18.21;7.53
50041;PMS7003;44598;51.606;5.912;2024-01-06T10:40:24;17.05;18.32;7.86
50041;PMS7003;44598;51.606;5.912;2024-01-06T11:07:04;23.89;22.46;11.02
50041;PMS7003;44598;51.606;5.912;2024-01-06T11:20:23;20.05;19.85;8.08
50041;PMS7003;44598;51.606;5.912;2024-01-06T11:33:43;21.25;20.61;9.17
50041;PMS7003;44598;51.606;5.912;2024-01-06T11:47:03;18.97;19.3;8.51
50041;PMS7003;44598;51.606;5.912;2024-01-06T12:13:42;24.97;22.9;9.06
50041;PMS7003;44598;51.606;5.912;2024-01-06T12:27:02;24.85;22.35;9.27
50041;PMS7003;44598;51.606;5.912;2024-01-06T12:53:41;22.69;21.48;10.36
50041;PMS7003;44598;51.606;5.912;2024-01-06T13:07:01;21.97;21.16;9.6
50041;PMS7003;44598;51.606;5.912;2024-01-06T13:20:20;20.29;20.17;9.06
50041;PMS7003;44598;51.606;5.912;2024-01-06T13:33:40;22.81;20.83;9.49
50041;PMS7003;44598;51.606;5.912;2024-01-06T13:47:00;21.13;20.72;9.17
50041;PMS7003;44598;51.606;5.912;2024-01-06T14:00:19;21.49;20.83;8.95
50041;PMS7003;44598;51.606;5.912;2024-01-06T14:13:39;20.89;20.28;8.84
50041;PMS7003;44598;51.606;5.912;2024-01-06T14:26:59;21.49;20.61;9.6
50041;PMS7003;44598;51.606;5.912;2024-01-06T14:53:38;24.13;22.25;11.45
50041;PMS7003;44598;51.606;5.912;2024-01-06T15:20:17;27.73;23.44;11.02
50041;PMS7003;44598;51.606;5.912;2024-01-06T15:33:37;24.49;22.03;10.58
50041;PMS7003;44598;51.606;5.912;2024-01-06T16:00:16;28.09;24.86;11.02
50041;PMS7003;44598;51.606;5.912;2024-01-06T16:13:36;46.7;42.52;17.23
50041;PMS7003;44598;51.606;5.912;2024-01-06T16:26:55;28.69;25.3;11.56
50041;PMS7003;44598;51.606;5.912;2024-01-06T16:40:15;25.45;23.12;9.93
50041;PMS7003;44598;51.606;5.912;2024-01-06T16:53:35;26.77;23.66;11.02
50041;PMS7003;44598;51.606;5.912;2024-01-06T17:06:54;24.61;22.35;10.04
50041;PMS7003;44598;51.606;5.912;2024-01-06T17:20:14;45.62;41.65;17.01
50041;PMS7003;44598;51.606;5.912;2024-01-06T17:33:33;26.89;23.88;11.56
50041;PMS7003;44598;51.606;5.912;2024-01-06T17:46:53;28.33;24.86;12.33
50041;PMS7003;44598;51.606;5.912;2024-01-06T18:00:13;38.3;31.51;16.03
50041;PMS7003;44598;51.606;5.912;2024-01-06T18:26:52;28.69;25.19;12.33
50041;PMS7003;44598;51.606;5.912;2024-01-06T18:40:12;32.29;27.7;14.29
50041;PMS7003;44598;51.606;5.912;2024-01-06T18:53:31;29.29;25.62;12.54
50041;PMS7003;44598;51.606;5.912;2024-01-06T19:06:51;27.13;24.1;11.89
50041;PMS7003;44598;51.606;5.912;2024-01-06T19:33:30;32.89;27.8;13.74
50041;PMS7003;44598;51.606;5.912;2024-01-06T20:13:29;29.29;25.73;13.31
50041;PMS7003;44598;51.606;5.912;2024-01-06T20:26:49;29.05;25.41;12.0
50041;PMS7003;44598;51.606;5.912;2024-01-06T20:40:08;26.53;23.55;11.67
50041;PMS7003;44598;51.606;5.912;2024-01-06T20:53:28;29.53;26.06;12.98
50041;PMS7003;44598;51.606;5.912;2024-01-06T21:06:47;34.1;28.57;13.96
50041;PMS7003;44598;51.606;5.912;2024-01-06T21:20:07;30.97;26.5;12.33
50041;PMS7003;44598;51.606;5.912;2024-01-06T21:33:27;28.57;25.3;12.44
50041;PMS7003;44598;51.606;5.912;2024-01-06T21:46:46;30.13;26.06;12.33
50041;PMS7003;44598;51.606;5.912;2024-01-06T22:00:06;35.18;28.79;13.96
50041;PMS7003;44598;51.606;5.912;2024-01-06T22:13:26;34.1;28.68;14.51
50041;PMS7003;44598;51.606;5.912;2024-01-06T22:26:45;30.01;25.95;11.45
50041;PMS7003;44598;51.606;5.912;2024-01-06T22:40:05;30.13;26.28;11.67
50041;PMS7003;44598;51.606;5.912;2024-01-06T22:53:24;30.01;26.06;11.78
50041;PMS7003;44598;51.606;5.912;2024-01-06T23:06:44;28.21;24.86;11.13
50041;PMS7003;44598;51.606;5.912;2024-01-06T23:33:23;28.09;24.75;11.13
50041;PMS7003;44598;51.606;5.912;2024-01-06T23:46:43;26.89;24.32;10.15
